createdAt,value
2018-01-04T00:00:17.660Z,97675.81
2018-01-04T00:01:55.999Z,97794.05
2018-01-04T00:03:32.926Z,97910.55
2018-01-04T00:05:09.675Z,97863.86
2018-01-04T00:06:46.836Z,97911.02
2018-01-04T00:08:23.629Z,97886.06
2018-01-04T00:10:01.416Z,97964.12
2018-01-04T00:11:38.355Z,97794.98
2018-01-04T00:13:16.264Z,97732.98
2018-01-04T00:14:54.099Z,97804.13
2018-01-04T00:16:37.924Z,97842.41
2018-01-04T00:18:14.739Z,97844.14
2018-01-04T00:19:51.976Z,97828.50
2018-01-04T00:21:28.690Z,97916.15
2018-01-04T00:23:06.220Z,97893.41
2018-01-04T00:24:43.783Z,97756.09
2018-01-04T00:26:21.557Z,97766.60
2018-01-04T00:28:00.026Z,97821.55
2018-01-04T00:29:39.064Z,97818.47
2018-01-04T00:31:15.763Z,97821.16
2018-01-04T00:32:53.389Z,97841.02
2018-01-04T00:34:30.887Z,97782.19
2018-01-04T00:36:17.909Z,97728.19
2018-01-04T00:37:55.401Z,97782.33
2018-01-04T00:39:33.574Z,97859.91
2018-01-04T00:41:17.179Z,97897.39
2018-01-04T00:42:53.823Z,97813.27
2018-01-04T00:44:30.650Z,97864.68
2018-01-04T00:46:08.567Z,97907.89
2018-01-04T00:47:45.202Z,97982.95
2018-01-04T00:49:22.887Z,98060.37
2018-01-04T00:50:59.802Z,98094.34
2018-01-04T00:52:36.961Z,97984.24
2018-01-04T00:54:13.652Z,97832.95
2018-01-04T00:55:50.270Z,97928.37
2018-01-04T00:57:27.145Z,97951.55
2018-01-04T00:59:04.235Z,97939.72
2018-01-04T01:00:40.939Z,97946.25
2018-01-04T01:02:17.904Z,97871.67
2018-01-04T01:03:54.562Z,97854.68
2018-01-04T01:05:31.574Z,97856.54
2018-01-04T01:07:08.621Z,97811.58
2018-01-04T01:08:45.733Z,97939.39
2018-01-04T01:10:22.488Z,98029.28
2018-01-04T01:12:00.238Z,98000.00
2018-01-04T01:13:37.022Z,97962.89
2018-01-04T01:16:45.495Z,97702.00
2018-01-04T01:18:22.631Z,97703.75
2018-01-04T01:19:59.242Z,97864.28
2018-01-04T01:21:35.935Z,97823.34
2018-01-04T01:23:13.089Z,97798.06
2018-01-04T01:24:51.104Z,97749.61
2018-01-04T01:26:28.108Z,97732.09
2018-01-04T01:28:05.092Z,97623.56
2018-01-04T01:29:54.042Z,97726.89
2018-01-04T01:31:30.960Z,97857.77
2018-01-04T01:34:41.546Z,97910.95
2018-01-04T01:36:18.316Z,97838.97
2018-01-04T01:37:55.295Z,97880.06
2018-01-04T01:39:31.958Z,97862.56
2018-01-04T01:41:09.369Z,97791.41
2018-01-04T01:42:47.522Z,97761.41
2018-01-04T01:44:25.015Z,97871.25
2018-01-04T01:46:01.710Z,97903.06
2018-01-04T01:47:42.598Z,97770.47
2018-01-04T01:49:19.679Z,97805.34
2018-01-04T01:50:56.725Z,97833.27
2018-01-04T01:52:33.894Z,97815.81
2018-01-04T01:54:15.495Z,97743.38
2018-01-04T01:55:53.321Z,97581.64
2018-01-04T01:57:30.177Z,97586.05
2018-01-04T01:59:08.393Z,97589.59
2018-01-04T02:00:46.309Z,97671.45
2018-01-04T02:02:23.048Z,97721.16
2018-01-04T02:04:00.265Z,97636.59
2018-01-04T02:05:37.893Z,97615.30
2018-01-04T02:07:15.828Z,97623.09
2018-01-04T02:08:52.872Z,97715.61
2018-01-04T02:10:29.641Z,97646.16
2018-01-04T02:12:07.019Z,97589.91
2018-01-04T02:13:44.529Z,97658.45
2018-01-04T02:15:25.697Z,97783.48
2018-01-04T02:17:03.140Z,97784.31
2018-01-04T02:18:53.519Z,97793.98
2018-01-04T02:22:54.415Z,97793.55
2018-01-04T02:26:49.277Z,97714.11
2018-01-04T02:29:14.112Z,97589.08
2018-01-04T02:35:11.218Z,97655.33
2018-01-04T02:39:04.157Z,97642.69
2018-01-04T02:40:59.642Z,97573.80
2018-01-04T02:42:49.775Z,97584.28
2018-01-04T02:44:39.881Z,97647.05
2018-01-04T02:46:24.712Z,97564.56
2018-01-04T02:48:01.170Z,97559.88
2018-01-04T02:49:39.082Z,97618.23
2018-01-04T02:51:16.169Z,97705.47
2018-01-04T02:52:52.583Z,97770.87
2018-01-04T02:54:28.941Z,97797.03
2018-01-04T02:56:09.211Z,97808.83
2018-01-04T02:57:45.923Z,97808.28
2018-01-04T02:59:23.186Z,97775.13
2018-01-04T03:00:59.817Z,97580.35
2018-01-04T03:02:37.590Z,97500.69
2018-01-04T03:04:14.064Z,97557.66
2018-01-04T03:05:50.351Z,97630.98
2018-01-04T03:07:27.900Z,97568.11
2018-01-04T03:09:05.849Z,97561.59
2018-01-04T03:10:42.298Z,97482.37
2018-01-04T03:12:18.650Z,97571.58
2018-01-04T03:13:55.029Z,97488.41
2018-01-04T03:15:32.738Z,97568.11
2018-01-04T03:17:09.142Z,97661.81
2018-01-04T03:18:45.470Z,97677.86
2018-01-04T03:20:21.755Z,97715.04
2018-01-04T03:22:06.238Z,97685.77
2018-01-04T03:23:43.212Z,97687.49
2018-01-04T03:25:23.548Z,97736.36
2018-01-04T03:29:07.705Z,97733.70
2018-01-04T03:30:48.816Z,97866.30
2018-01-04T03:34:37.347Z,97873.36
2018-01-04T03:37:17.764Z,97560.20
2018-01-04T03:39:26.563Z,97599.54
2018-01-04T03:41:07.402Z,97654.36
2018-01-04T03:44:50.428Z,97754.23
2018-01-04T03:47:29.507Z,97615.19
2018-01-04T03:49:10.374Z,97736.78
2018-01-04T03:51:50.080Z,97779.50
2018-01-04T03:53:30.658Z,97733.63
2018-01-04T03:55:10.912Z,97676.13
2018-01-04T03:58:54.356Z,97656.52
2018-01-04T04:00:34.729Z,97698.92
2018-01-04T04:04:18.340Z,97628.69
2018-01-04T04:06:57.058Z,97542.52
2018-01-04T04:08:37.410Z,97510.23
2018-01-04T04:10:14.256Z,97638.25
2018-01-04T04:11:51.534Z,97751.66
2018-01-04T04:13:28.664Z,97749.00
2018-01-04T04:15:07.058Z,97766.81
2018-01-04T04:16:44.900Z,97838.51
2018-01-04T04:18:21.333Z,97793.84
2018-01-04T04:19:57.805Z,97698.84
2018-01-04T04:21:34.169Z,97533.75
2018-01-04T04:23:11.050Z,97508.02
2018-01-04T04:24:48.157Z,97647.02
2018-01-04T04:26:24.603Z,97753.31
2018-01-04T04:28:00.977Z,97599.47
2018-01-04T04:29:37.652Z,97708.91
2018-01-04T04:31:16.518Z,97779.97
2018-01-04T04:32:53.214Z,97800.11
2018-01-04T04:34:29.598Z,97896.03
2018-01-04T04:36:06.930Z,97881.14
2018-01-04T04:37:44.018Z,97898.65
2018-01-04T04:39:23.571Z,97807.46
2018-01-04T04:41:00.032Z,97851.13
2018-01-04T04:42:36.559Z,97927.02
2018-01-04T04:44:12.923Z,97904.38
2018-01-04T04:45:49.282Z,97948.91
2018-01-04T04:47:26.351Z,97946.64
2018-01-04T04:49:02.970Z,97936.66
2018-01-04T04:50:40.259Z,97885.09
2018-01-04T04:52:16.733Z,97923.08
2018-01-04T04:53:53.618Z,97783.05
2018-01-04T04:55:30.752Z,97822.38
2018-01-04T04:57:07.194Z,97837.18
2018-01-04T04:58:43.601Z,97806.27
2018-01-04T05:00:20.861Z,97702.39
2018-01-04T05:01:58.122Z,97578.59
2018-01-04T05:03:34.908Z,97694.52
2018-01-04T05:05:12.274Z,97774.34
2018-01-04T05:06:48.944Z,97706.27
2018-01-04T05:08:25.503Z,97656.69
2018-01-04T05:10:01.839Z,97786.56
2018-01-04T05:13:10.933Z,97895.23
2018-01-04T05:14:47.310Z,97907.83
2018-01-04T05:16:25.652Z,97722.92
2018-01-04T05:18:01.982Z,97710.63
2018-01-04T05:19:39.438Z,97716.76
2018-01-04T05:21:15.766Z,97879.03
2018-01-04T05:22:52.223Z,97910.77
2018-01-04T05:24:28.597Z,97678.39
2018-01-04T05:26:05.286Z,97734.60
2018-01-04T05:27:41.645Z,97758.28
2018-01-04T05:29:18.031Z,97871.61
2018-01-04T05:30:54.382Z,97921.75
2018-01-04T05:32:31.049Z,97977.28
2018-01-04T05:34:08.276Z,97969.39
2018-01-04T05:35:45.295Z,98009.08
2018-01-04T05:37:21.724Z,97880.28
2018-01-04T05:38:58.810Z,97923.54
2018-01-04T05:40:35.829Z,97948.83
2018-01-04T05:42:12.183Z,97828.80
2018-01-04T05:43:49.023Z,97889.11
2018-01-04T05:45:25.853Z,97858.13
2018-01-04T05:47:02.089Z,97714.18
2018-01-04T05:48:38.374Z,97828.44
2018-01-04T05:50:14.767Z,97773.02
2018-01-04T05:51:52.002Z,97673.59
2018-01-04T05:53:28.350Z,97753.88
2018-01-04T05:55:04.945Z,97699.78
2018-01-04T05:56:42.174Z,97799.65
2018-01-04T05:58:18.965Z,97856.72
2018-01-04T05:59:56.088Z,97923.11
2018-01-04T06:01:32.487Z,97966.27
2018-01-04T06:03:08.834Z,97893.48
2018-01-04T06:04:46.962Z,97925.27
2018-01-04T06:06:23.127Z,97887.78
2018-01-04T06:07:59.450Z,97688.39
2018-01-04T06:09:35.850Z,97711.13
2018-01-04T06:11:13.590Z,97873.00
2018-01-04T06:12:50.700Z,97938.75
2018-01-04T06:14:27.018Z,98089.03
2018-01-04T06:16:04.086Z,98120.05
2018-01-04T06:17:43.902Z,97927.41
2018-01-04T06:19:20.176Z,97839.80
2018-01-04T06:20:57.180Z,97872.10
2018-01-04T06:22:33.492Z,97888.67
2018-01-04T06:24:11.412Z,97941.94
2018-01-04T06:25:47.638Z,97964.55
2018-01-04T06:27:23.897Z,97855.47
2018-01-04T06:29:00.215Z,97893.02
2018-01-04T06:30:37.105Z,98074.59
2018-01-04T06:32:13.505Z,98182.13
2018-01-04T06:33:49.769Z,98243.82
2018-01-04T06:35:26.823Z,98205.30
2018-01-04T06:37:03.692Z,98143.69
2018-01-04T06:38:40.001Z,98007.75
2018-01-04T06:40:16.278Z,98050.68
2018-01-04T06:41:52.689Z,98073.30
2018-01-04T06:43:29.567Z,97954.14
2018-01-04T06:45:07.807Z,97976.85
2018-01-04T06:46:44.152Z,98098.69
2018-01-04T06:48:21.695Z,98100.02
2018-01-04T06:49:58.560Z,98011.70
2018-01-04T06:51:35.624Z,98077.75
2018-01-04T06:53:17.658Z,98128.89
2018-01-04T06:54:54.086Z,98216.69
2018-01-04T06:56:30.892Z,98262.66
2018-01-04T06:58:07.933Z,98302.84
2018-01-04T06:59:44.288Z,98315.61
2018-01-04T07:01:20.553Z,98264.81
2018-01-04T07:02:57.639Z,98283.64
2018-01-04T07:04:34.005Z,98224.23
2018-01-04T07:06:10.305Z,98269.66
2018-01-04T07:07:47.208Z,98269.16
2018-01-04T07:09:23.804Z,98232.03
2018-01-04T07:11:00.166Z,98291.52
2018-01-04T07:12:38.155Z,98270.49
2018-01-04T07:14:14.399Z,98192.69
2018-01-04T07:15:51.936Z,98093.88
2018-01-04T07:17:28.749Z,98129.31
2018-01-04T07:19:04.945Z,98220.21
2018-01-04T07:20:41.220Z,98331.75
2018-01-04T07:22:17.765Z,98299.33
2018-01-04T07:23:54.014Z,98274.02
2018-01-04T07:25:30.386Z,98149.76
2018-01-04T07:27:07.230Z,98096.03
2018-01-04T07:28:44.723Z,98030.01
2018-01-04T07:30:20.991Z,98060.20
2018-01-04T07:31:57.444Z,97950.55
2018-01-04T07:33:35.649Z,97965.94
2018-01-04T07:35:12.297Z,98051.11
2018-01-04T07:36:49.364Z,97954.53
2018-01-04T07:38:36.422Z,98080.84
2018-01-04T07:40:13.140Z,98113.55
2018-01-04T07:41:51.082Z,98032.77
2018-01-04T07:43:27.784Z,98067.66
2018-01-04T07:45:05.786Z,97949.33
2018-01-04T07:46:43.104Z,98045.37
2018-01-04T07:48:19.895Z,98119.19
2018-01-04T07:49:56.568Z,98137.64
2018-01-04T07:51:33.349Z,98214.50
2018-01-04T07:53:15.339Z,98215.39
2018-01-04T07:54:52.433Z,98270.09
2018-01-04T07:56:29.740Z,98268.77
2018-01-04T07:58:07.067Z,98278.80
2018-01-04T07:59:44.636Z,98319.46
2018-01-04T08:01:22.391Z,98215.00
2018-01-04T08:02:58.943Z,98183.92
2018-01-04T08:04:36.460Z,98130.14
2018-01-04T08:06:17.087Z,98121.45
2018-01-04T08:07:55.226Z,98178.73
2018-01-04T08:09:31.946Z,98311.25
2018-01-04T08:11:08.615Z,98372.00
2018-01-04T08:12:45.989Z,98390.41
2018-01-04T08:14:24.270Z,98347.94
2018-01-04T08:16:01.033Z,98329.56
2018-01-04T08:17:37.627Z,98273.05
2018-01-04T08:19:14.358Z,98277.53
2018-01-04T08:20:52.249Z,98288.00
2018-01-04T08:22:29.622Z,98278.36
2018-01-04T08:24:16.708Z,98244.62
2018-01-04T08:25:53.315Z,98239.44
2018-01-04T08:27:30.329Z,98205.73
2018-01-04T08:30:47.917Z,98118.36
2018-01-04T08:32:24.658Z,98184.31
2018-01-04T08:34:01.679Z,98259.59
2018-01-04T08:35:38.253Z,98378.61
2018-01-04T08:37:14.764Z,98419.34
2018-01-04T08:38:51.512Z,98389.05
2018-01-04T08:40:28.542Z,98365.78
2018-01-04T08:42:05.018Z,98400.92
2018-01-04T08:43:42.285Z,98295.84
2018-01-04T08:45:19.384Z,98364.66
2018-01-04T08:46:56.781Z,98417.58
2018-01-04T08:48:33.394Z,98408.77
2018-01-04T08:50:10.255Z,98424.55
2018-01-04T08:51:47.588Z,98410.52
2018-01-04T08:53:24.447Z,98371.56
2018-01-04T08:55:01.013Z,98305.01
2018-01-04T08:56:38.009Z,98236.81
2018-01-04T08:58:14.507Z,98185.58
2018-01-04T08:59:51.601Z,98154.61
2018-01-04T09:01:28.342Z,98109.53
2018-01-04T09:03:05.659Z,98098.55
2018-01-04T09:04:42.349Z,98155.07
2018-01-04T09:06:19.340Z,98168.02
2018-01-04T09:07:55.974Z,98170.70
2018-01-04T09:09:32.805Z,98193.94
2018-01-04T09:11:09.321Z,98211.02
2018-01-04T09:12:46.784Z,98237.71
2018-01-04T09:14:24.159Z,98245.48
2018-01-04T09:16:01.294Z,98213.20
2018-01-04T09:17:38.689Z,98228.48
2018-01-04T09:19:15.740Z,98202.21
2018-01-04T09:20:53.016Z,98154.57
2018-01-04T09:22:29.697Z,98233.72
2018-01-04T09:24:07.014Z,98279.30
2018-01-04T09:25:45.036Z,98321.66
2018-01-04T09:27:22.398Z,98310.29
2018-01-04T09:28:58.964Z,98284.48
2018-01-04T09:30:35.730Z,98228.94
2018-01-04T09:32:12.957Z,98302.42
2018-01-04T09:33:49.428Z,98296.73
2018-01-04T09:35:26.130Z,98354.45
2018-01-04T09:37:02.767Z,98424.55
2018-01-04T09:38:40.484Z,98432.83
2018-01-04T09:40:17.350Z,98480.59
2018-01-04T09:41:54.127Z,98485.41
2018-01-04T09:43:31.350Z,98511.25
2018-01-04T09:45:12.277Z,98529.28
2018-01-04T09:46:50.526Z,98566.05
2018-01-04T09:48:27.401Z,98535.37
2018-01-04T09:50:03.995Z,98566.45
2018-01-04T09:51:40.993Z,98584.88
2018-01-04T09:53:18.409Z,98576.93
2018-01-04T09:54:55.721Z,98526.12
2018-01-04T09:56:34.454Z,98497.25
2018-01-04T09:58:12.404Z,98535.34
2018-01-04T09:59:49.962Z,98518.27
2018-01-04T10:01:26.866Z,98524.42
2018-01-04T10:03:04.204Z,98548.11
2018-01-04T10:04:41.230Z,98622.22
2018-01-04T10:06:18.614Z,98651.95
2018-01-04T10:07:56.278Z,98655.05
2018-01-04T10:09:33.150Z,98657.24
2018-01-04T10:11:11.119Z,98620.42
2018-01-04T10:12:48.770Z,98573.09
2018-01-04T10:14:26.324Z,98491.96
2018-01-04T10:16:03.204Z,98480.69
2018-01-04T10:17:42.630Z,98564.31
2018-01-04T10:19:19.341Z,98572.57
2018-01-04T10:20:55.843Z,98499.91
2018-01-04T10:22:32.733Z,98544.55
2018-01-04T10:24:09.782Z,98611.17
2018-01-04T10:25:46.799Z,98605.91
2018-01-04T10:27:23.456Z,98567.81
2018-01-04T10:29:00.061Z,98533.61
2018-01-04T10:30:37.144Z,98470.98
2018-01-04T10:32:17.915Z,98451.72
2018-01-04T10:33:55.245Z,98436.36
2018-01-04T10:35:31.824Z,98379.48
2018-01-04T10:37:09.643Z,98365.42
2018-01-04T10:38:46.158Z,98276.14
2018-01-04T10:40:35.338Z,98211.02
2018-01-04T10:42:11.977Z,98286.23
2018-01-04T10:43:50.449Z,98266.14
2018-01-04T10:45:29.650Z,98228.88
2018-01-04T10:47:06.945Z,98225.42
2018-01-04T10:48:44.299Z,98216.69
2018-01-04T10:50:20.889Z,98227.58
2018-01-04T10:51:57.435Z,98245.05
2018-01-04T10:53:34.108Z,98286.20
2018-01-04T10:55:11.816Z,98318.16
2018-01-04T10:56:49.551Z,98366.68
2018-01-04T10:58:26.193Z,98430.27
2018-01-04T11:00:02.877Z,98452.58
2018-01-04T11:01:40.252Z,98462.16
2018-01-04T11:03:16.884Z,98435.92
2018-01-04T11:04:54.282Z,98418.38
2018-01-04T11:06:30.922Z,98384.30
2018-01-04T11:08:09.131Z,98361.39
2018-01-04T11:09:47.000Z,98338.70
2018-01-04T11:11:23.686Z,98361.89
2018-01-04T11:13:00.324Z,98377.58
2018-01-04T11:14:37.344Z,98379.81
2018-01-04T11:17:56.813Z,98463.03
2018-01-04T11:19:33.570Z,98480.12
2018-01-04T11:21:10.794Z,98455.18
2018-01-04T11:22:47.324Z,98446.83
2018-01-04T11:24:24.301Z,98464.75
2018-01-04T11:26:00.993Z,98498.05
2018-01-04T11:27:38.778Z,98502.01
2018-01-04T11:29:15.416Z,98488.87
2018-01-04T11:30:52.350Z,98479.26
2018-01-04T11:32:29.149Z,98359.27
2018-01-04T11:34:06.205Z,98342.22
2018-01-04T11:35:43.586Z,98396.12
2018-01-04T11:37:21.026Z,98410.63
2018-01-04T11:38:57.541Z,98460.89
2018-01-04T11:40:35.597Z,98453.02
2018-01-04T11:42:12.767Z,98397.86
2018-01-04T11:43:50.383Z,98456.47
2018-01-04T11:45:28.821Z,98480.52
2018-01-04T11:47:06.936Z,98491.50
2018-01-04T11:48:45.242Z,98473.56
2018-01-04T11:50:22.996Z,98481.84
2018-01-04T11:51:59.576Z,98467.88
2018-01-04T11:53:36.837Z,98400.45
2018-01-04T11:55:14.383Z,98342.16
2018-01-04T11:56:52.227Z,98318.50
2018-01-04T11:58:28.937Z,98306.80
2018-01-04T12:00:06.450Z,98401.81
2018-01-04T12:01:43.368Z,98416.67
2018-01-04T12:03:20.041Z,98427.15
2018-01-04T12:04:56.860Z,98410.59
2018-01-04T12:06:33.778Z,98366.72
2018-01-04T12:08:17.207Z,98308.96
2018-01-04T12:09:53.913Z,98290.09
2018-01-04T12:11:30.519Z,98334.38
2018-01-04T12:13:08.290Z,98327.33
2018-01-04T12:14:45.857Z,98091.18
2018-01-04T12:16:22.929Z,97912.17
2018-01-04T12:17:59.982Z,97773.95
2018-01-04T12:19:37.431Z,97646.66
2018-01-04T12:21:14.122Z,97654.04
2018-01-04T12:22:50.717Z,97809.69
2018-01-04T12:24:27.459Z,97915.25
2018-01-04T12:26:05.848Z,98055.35
2018-01-04T12:27:42.406Z,97893.80
2018-01-04T12:29:19.085Z,97941.41
2018-01-04T12:30:56.175Z,98098.52
2018-01-04T12:32:33.526Z,98243.25
2018-01-04T12:34:10.903Z,98241.63
2018-01-04T12:35:47.775Z,98316.84
2018-01-04T12:37:25.185Z,98407.97
2018-01-04T12:39:02.152Z,98419.70
2018-01-04T12:40:39.050Z,98403.08
2018-01-04T12:42:15.604Z,98254.72
2018-01-04T12:43:52.150Z,98220.54
2018-01-04T12:45:30.228Z,98243.33
2018-01-04T12:47:06.799Z,98130.11
2018-01-04T12:48:43.686Z,98210.98
2018-01-04T12:50:21.238Z,98217.55
2018-01-04T12:51:58.022Z,98207.45
2018-01-04T12:53:35.029Z,97883.87
2018-01-04T12:55:12.776Z,97636.59
2018-01-04T12:56:49.665Z,97449.20
2018-01-04T12:58:27.450Z,97455.31
2018-01-04T13:00:04.453Z,97528.95
2018-01-04T13:01:42.471Z,97619.12
2018-01-04T13:03:19.942Z,97612.17
2018-01-04T13:04:57.004Z,97562.95
2018-01-04T13:06:33.537Z,97523.27
2018-01-04T13:08:11.417Z,97504.98
2018-01-04T13:09:48.378Z,97504.12
2018-01-04T13:11:25.397Z,97486.27
2018-01-04T13:13:02.013Z,97500.19
2018-01-04T13:14:38.789Z,97528.88
2018-01-04T13:16:15.751Z,97620.06
2018-01-04T13:17:52.652Z,97636.49
2018-01-04T13:19:30.004Z,97812.73
2018-01-04T13:21:06.903Z,97919.99
2018-01-04T13:22:43.689Z,98023.05
2018-01-04T13:24:22.003Z,98106.08
2018-01-04T13:25:58.575Z,98209.69
2018-01-04T13:27:35.237Z,98129.14
2018-01-04T13:29:11.849Z,98203.04
2018-01-04T13:30:48.985Z,98254.72
2018-01-04T13:32:25.819Z,98294.08
2018-01-04T13:34:02.487Z,98231.50
2018-01-04T13:35:39.107Z,98276.57
2018-01-04T13:37:15.690Z,98343.16
2018-01-04T13:38:52.190Z,98341.36
2018-01-04T13:40:28.728Z,98301.52
2018-01-04T13:42:05.335Z,98263.45
2018-01-04T13:43:42.667Z,98188.13
2018-01-04T13:45:19.770Z,98088.63
2018-01-04T13:46:56.925Z,98019.20
2018-01-04T13:48:33.489Z,97904.84
2018-01-04T13:50:11.245Z,97927.48
2018-01-04T13:51:47.793Z,98008.33
2018-01-04T13:53:32.576Z,98078.61
2018-01-04T13:55:09.346Z,98148.06
2018-01-04T13:56:47.133Z,98147.64
2018-01-04T13:58:23.781Z,98156.33
2018-01-04T14:00:00.302Z,98193.52
2018-01-04T14:01:36.985Z,98175.55
2018-01-04T14:03:15.189Z,98163.87
2018-01-04T14:04:51.819Z,98176.45
2018-01-04T14:06:28.517Z,97971.11
2018-01-04T14:08:05.337Z,97790.08
2018-01-04T14:09:44.625Z,97621.81
2018-01-04T14:11:21.974Z,97644.55
2018-01-04T14:12:59.465Z,97847.65
2018-01-04T14:14:36.185Z,97963.69
2018-01-04T14:16:13.225Z,98014.78
2018-01-04T14:17:50.830Z,98044.08
2018-01-04T14:19:28.052Z,98042.31
2018-01-04T14:21:04.921Z,98053.27
2018-01-04T14:22:42.559Z,98082.06
2018-01-04T14:24:19.163Z,98143.72
2018-01-04T14:25:55.781Z,98204.87
2018-01-04T14:27:32.563Z,98278.43
2018-01-04T14:29:09.385Z,98338.40
2018-01-04T14:30:47.025Z,98376.89
2018-01-04T14:32:38.108Z,98417.23
2018-01-04T14:34:14.673Z,98415.95
2018-01-04T14:35:51.771Z,98433.39
2018-01-04T14:37:28.278Z,98274.02
2018-01-04T14:39:06.540Z,98166.95
2018-01-04T14:40:43.952Z,98223.30
2018-01-04T14:42:22.661Z,98320.52
2018-01-04T14:44:00.607Z,98360.33
2018-01-04T14:45:37.629Z,98465.78
2018-01-04T14:47:16.128Z,98534.20
2018-01-04T14:48:53.836Z,98501.34
2018-01-04T14:50:31.771Z,98526.31
2018-01-04T14:52:09.324Z,98664.36
2018-01-04T14:53:46.149Z,98743.69
2018-01-04T14:55:26.882Z,98796.92
2018-01-04T14:57:04.607Z,98826.31
2018-01-04T14:58:42.177Z,98856.60
2018-01-04T15:00:20.196Z,98851.77
2018-01-04T15:01:58.072Z,98846.51
2018-01-04T15:03:35.118Z,98690.23
2018-01-04T15:05:12.341Z,98578.05
2018-01-04T15:06:48.873Z,98531.64
2018-01-04T15:09:58.882Z,98632.03
2018-01-04T15:11:36.594Z,98612.27
2018-01-04T15:13:14.028Z,98525.05
2018-01-04T15:14:50.915Z,98500.10
2018-01-04T15:16:27.590Z,98518.97
2018-01-04T15:18:04.317Z,98577.22
2018-01-04T15:19:42.753Z,98714.07
2018-01-04T15:21:19.979Z,98657.50
2018-01-04T15:22:59.002Z,98542.16
2018-01-04T15:24:35.772Z,98569.80
2018-01-04T15:26:13.034Z,98673.68
2018-01-04T15:27:50.065Z,98708.69
2018-01-04T15:29:27.104Z,98735.12
2018-01-04T15:31:03.990Z,98797.84
2018-01-04T15:32:41.349Z,98869.40
2018-01-04T15:34:19.293Z,98820.70
2018-01-04T15:35:56.501Z,98853.59
2018-01-04T15:37:33.249Z,98953.25
2018-01-04T15:39:09.832Z,99058.36
2018-01-04T15:40:47.625Z,98973.99
2018-01-04T15:42:24.489Z,98937.48
2018-01-04T15:44:01.093Z,98927.44
2018-01-04T15:45:38.394Z,99010.11
2018-01-04T15:47:15.701Z,99028.53
2018-01-04T15:48:52.743Z,99160.80
2018-01-04T15:50:30.230Z,99144.08
2018-01-04T15:52:07.235Z,99121.70
2018-01-04T15:53:45.708Z,99139.27
2018-01-04T15:55:22.530Z,99067.20
2018-01-04T15:57:00.205Z,99064.56
2018-01-04T15:58:37.955Z,99022.82
2018-01-04T16:00:20.832Z,99120.86
2018-01-04T16:01:58.020Z,99119.53
2018-01-04T16:03:34.798Z,99084.39
2018-01-04T16:05:11.764Z,99161.23
2018-01-04T16:06:49.274Z,99257.97
2018-01-04T16:08:30.633Z,99227.69
2018-01-04T16:10:07.366Z,99131.77
2018-01-04T16:11:44.448Z,99141.53
2018-01-04T16:13:21.482Z,99246.23
2018-01-04T16:14:59.675Z,99296.84
2018-01-04T16:16:37.445Z,99359.77
2018-01-04T16:18:14.664Z,99465.97
2018-01-04T16:19:51.480Z,99318.84
2018-01-04T16:21:28.336Z,99224.30
2018-01-04T16:23:05.298Z,99098.93
2018-01-04T16:24:44.206Z,99113.91
2018-01-04T16:26:21.837Z,99236.63
2018-01-04T16:27:59.116Z,99258.64
2018-01-04T16:29:35.837Z,99330.81
2018-01-04T16:31:13.905Z,99351.48
2018-01-04T16:32:51.916Z,99456.27
2018-01-04T16:34:29.797Z,99445.27
2018-01-04T16:36:07.649Z,99445.73
2018-01-04T16:37:46.529Z,99381.02
2018-01-04T16:39:23.678Z,99273.11
2018-01-04T16:41:01.212Z,99316.72
2018-01-04T16:42:39.273Z,99276.22
2018-01-04T16:44:16.355Z,99380.96
2018-01-04T16:45:54.009Z,99291.21
2018-01-04T16:47:30.839Z,99388.48
2018-01-04T16:49:10.781Z,99197.48
2018-01-04T16:50:48.093Z,99185.19
2018-01-04T16:52:24.915Z,99290.38
2018-01-04T16:54:01.985Z,99234.89
2018-01-04T16:55:38.773Z,99329.92
2018-01-04T16:57:16.438Z,99275.81
2018-01-04T16:58:54.049Z,99388.91
2018-01-04T17:00:31.884Z,99417.57
2018-01-04T17:02:09.379Z,99401.72
2018-01-04T17:03:46.878Z,99409.17
2018-01-04T17:05:24.287Z,99481.97
2018-01-04T17:07:02.193Z,99504.36
2018-01-04T17:08:39.964Z,99484.97
2018-01-04T17:10:17.810Z,99432.61
2018-01-04T17:12:01.461Z,99402.18
2018-01-04T17:13:39.468Z,99298.29
2018-01-04T17:15:22.305Z,99293.83
2018-01-04T17:17:02.883Z,99250.31
2018-01-04T17:18:43.065Z,99222.22
2018-01-04T17:20:23.585Z,99298.73
2018-01-04T17:22:00.694Z,99149.97
2018-01-04T17:23:37.800Z,99241.13
2018-01-04T17:25:15.508Z,99356.44
2018-01-04T17:26:52.283Z,99307.08
2018-01-04T17:28:30.072Z,99292.52
2018-01-04T17:30:09.151Z,99313.27
2018-01-04T17:31:49.628Z,99331.72
2018-01-04T17:33:30.571Z,99180.81
2018-01-04T17:35:13.793Z,99255.63
2018-01-04T17:36:51.965Z,99378.95
2018-01-04T17:38:29.095Z,99424.73
2018-01-04T17:40:06.149Z,99462.56
2018-01-04T17:41:43.630Z,99526.96
2018-01-04T17:43:21.603Z,99553.86
2018-01-04T17:45:00.868Z,99577.69
2018-01-04T17:46:38.825Z,99507.13
2018-01-04T17:48:28.008Z,99419.85
2018-01-04T17:50:05.754Z,99381.55
2018-01-04T17:52:36.776Z,99273.31
2018-01-04T17:54:14.649Z,99090.33
2018-01-04T17:55:52.637Z,99035.78
2018-01-04T17:57:33.016Z,98988.74
2018-01-04T17:59:10.299Z,98996.65
2018-01-04T18:00:48.625Z,99027.90
2018-01-04T18:02:30.169Z,99076.66
2018-01-04T18:04:10.672Z,99106.95
2018-01-04T18:05:47.808Z,99120.61
2018-01-04T18:07:27.442Z,99175.09
2018-01-04T18:09:05.532Z,99142.45
2018-01-04T18:10:43.875Z,99072.69
2018-01-04T18:12:20.988Z,99079.37
2018-01-04T18:13:59.741Z,99004.52
2018-01-04T18:15:39.286Z,98931.68
2018-01-04T18:17:16.387Z,98932.11
2018-01-04T18:18:55.339Z,98922.38
2018-01-04T18:20:32.649Z,98913.61
2018-01-04T18:23:42.992Z,99070.92
2018-01-04T18:25:20.550Z,99082.33
2018-01-04T18:26:58.812Z,99190.50
2018-01-04T18:28:36.361Z,99259.16
2018-01-04T18:30:16.007Z,99199.80
2018-01-04T18:31:53.695Z,99190.50
2018-01-04T18:33:31.127Z,99028.22
2018-01-04T18:35:09.018Z,99057.27
2018-01-04T18:36:48.473Z,99126.69
2018-01-04T18:38:28.111Z,99151.86
2018-01-04T18:40:10.579Z,99133.77
2018-01-04T18:41:48.493Z,99044.55
2018-01-04T18:43:27.437Z,99001.58
2018-01-04T18:45:04.830Z,98935.22
2018-01-04T18:46:44.439Z,99008.58
2018-01-04T18:48:26.100Z,98942.62
2018-01-04T18:50:06.588Z,99102.21
2018-01-04T18:51:45.798Z,99096.84
2018-01-04T18:53:25.438Z,99152.23
2018-01-04T18:55:02.573Z,99121.91
2018-01-04T18:56:40.267Z,99143.48
2018-01-04T18:58:20.422Z,99081.45
2018-01-04T18:59:58.611Z,99109.13
2018-01-04T19:01:36.435Z,99015.06
2018-01-04T19:03:15.088Z,99001.95
2018-01-04T19:04:51.723Z,99000.96
2018-01-04T19:06:28.448Z,98944.33
2018-01-04T19:08:05.245Z,98924.16
2018-01-04T19:09:42.494Z,98989.23
2018-01-04T19:11:19.980Z,99037.08
2018-01-04T19:12:56.764Z,99073.09
2018-01-04T19:14:33.472Z,99061.23
2018-01-04T19:16:10.709Z,99074.89
2018-01-04T19:17:47.804Z,99099.89
2018-01-04T19:19:26.157Z,99119.25
2018-01-04T19:21:05.301Z,98912.28
2018-01-04T19:22:43.214Z,98887.64
2018-01-04T19:24:19.853Z,99034.81
2018-01-04T19:25:58.201Z,99073.89
2018-01-04T19:27:34.975Z,98976.00
2018-01-04T19:29:13.631Z,98924.12
2018-01-04T19:30:50.394Z,98912.28
2018-01-04T19:32:27.408Z,98937.69
2018-01-04T19:34:04.325Z,98997.92
2018-01-04T19:35:43.958Z,98938.16
2018-01-04T19:37:21.043Z,98903.91
2018-01-04T19:38:57.870Z,98941.69
2018-01-04T19:40:35.394Z,98929.42
2018-01-04T19:42:12.809Z,98957.50
2018-01-04T19:43:50.935Z,98925.80
2018-01-04T19:45:31.043Z,98974.30